sensor_id;sensor_type;location;lat;lon;timestamp;temperature;humidity
11538;DHT22;50159;49.426;11.182;2022-08-01T00:00:16;18.50;90.70
11538;DHT22;50159;49.426;11.182;2022-08-01T00:02:43;18.50;90.90
11538;DHT22;50159;49.426;11.182;2022-08-01T00:05:10;18.40;91.20
11538;DHT22;50159;49.426;11.182;2022-08-01T00:07:37;18.40;91.90
11538;DHT22;50159;49.426;11.182;2022-08-01T00:10:09;18.40;91.90
11538;DHT22;50159;49.426;11.182;2022-08-01T00:12:39;18.40;92.20
11538;DHT22;50159;49.426;11.182;2022-08-01T00:15:08;18.30;92.60
11538;DHT22;50159;49.426;11.182;2022-08-01T00:17:36;18.20;92.90
11538;DHT22;50159;49.426;11.182;2022-08-01T00:20:05;18.20;93.20
11538;DHT22;50159;49.426;11.182;2022-08-01T00:22:34;18.20;93.50
11538;DHT22;50159;49.426;11.182;2022-08-01T00:25:03;18.10;93.60
11538;DHT22;50159;49.426;11.182;2022-08-01T00:27:32;18.10;93.90
11538;DHT22;50159;49.426;11.182;2022-08-01T00:30:04;18.00;93.90
11538;DHT22;50159;49.426;11.182;2022-08-01T00:32:41;18.00;94.30
11538;DHT22;50159;49.426;11.182;2022-08-01T00:35:08;17.90;94.60
11538;DHT22;50159;49.426;11.182;2022-08-01T00:37:35;17.90;94.90
11538;DHT22;50159;49.426;11.182;2022-08-01T00:40:03;17.80;95.10
11538;DHT22;50159;49.426;11.182;2022-08-01T00:42:47;17.80;95.50
11538;DHT22;50159;49.426;11.182;2022-08-01T00:45:18;17.80;95.90
11538;DHT22;50159;49.426;11.182;2022-08-01T00:47:45;17.70;96.40
11538;DHT22;50159;49.426;11.182;2022-08-01T00:50:13;17.70;96.70
11538;DHT22;50159;49.426;11.182;2022-08-01T00:52:41;17.70;97.00
11538;DHT22;50159;49.426;11.182;2022-08-01T00:55:19;17.60;97.20
11538;DHT22;50159;49.426;11.182;2022-08-01T00:57:49;17.50;97.50
11538;DHT22;50159;49.426;11.182;2022-08-01T01:00:32;17.50;97.90
11538;DHT22;50159;49.426;11.182;2022-08-01T01:03:21;17.50;98.30
11538;DHT22;50159;49.426;11.182;2022-08-01T01:15:37;17.40;99.70
11538;DHT22;50159;49.426;11.182;2022-08-01T01:18:22;17.30;99.90
11538;DHT22;50159;49.426;11.182;2022-08-01T01:27:09;17.10;99.90
11538;DHT22;50159;49.426;11.182;2022-08-01T01:29:49;17.10;99.90
11538;DHT22;50159;49.426;11.182;2022-08-01T01:32:33;17.00;99.90
11538;DHT22;50159;49.426;11.182;2022-08-01T01:35:31;17.10;99.90
11538;DHT22;50159;49.426;11.182;2022-08-01T01:38:10;17.00;99.90
11538;DHT22;50159;49.426;11.182;2022-08-01T01:40:49;17.00;99.90
11538;DHT22;50159;49.426;11.182;2022-08-01T01:43:19;17.00;99.90
11538;DHT22;50159;49.426;11.182;2022-08-01T01:45:54;16.90;99.90
11538;DHT22;50159;49.426;11.182;2022-08-01T01:48:23;16.90;99.90
11538;DHT22;50159;49.426;11.182;2022-08-01T01:50:52;16.90;99.90
11538;DHT22;50159;49.426;11.182;2022-08-01T01:53:21;16.80;99.90
11538;DHT22;50159;49.426;11.182;2022-08-01T01:55:52;16.90;99.90
11538;DHT22;50159;49.426;11.182;2022-08-01T01:58:21;16.80;99.90
11538;DHT22;50159;49.426;11.182;2022-08-01T02:00:52;16.80;99.90
11538;DHT22;50159;49.426;11.182;2022-08-01T02:03:20;16.80;99.90
11538;DHT22;50159;49.426;11.182;2022-08-01T02:05:50;16.80;99.90
11538;DHT22;50159;49.426;11.182;2022-08-01T02:08:20;16.80;99.90
11538;DHT22;50159;49.426;11.182;2022-08-01T02:10:52;16.90;99.90
11538;DHT22;50159;49.426;11.182;2022-08-01T02:13:39;16.90;99.90
11538;DHT22;50159;49.426;11.182;2022-08-01T02:16:09;16.90;99.90
11538;DHT22;50159;49.426;11.182;2022-08-01T02:18:37;16.90;99.90
11538;DHT22;50159;49.426;11.182;2022-08-01T02:21:09;17.00;99.90
11538;DHT22;50159;49.426;11.182;2022-08-01T02:23:40;17.00;99.90
11538;DHT22;50159;49.426;11.182;2022-08-01T02:26:13;17.00;99.90
11538;DHT22;50159;49.426;11.182;2022-08-01T02:28:57;17.00;99.90
11538;DHT22;50159;49.426;11.182;2022-08-01T02:31:31;17.10;99.90
11538;DHT22;50159;49.426;11.182;2022-08-01T02:34:04;17.00;99.90
11538;DHT22;50159;49.426;11.182;2022-08-01T02:36:36;17.00;99.90
11538;DHT22;50159;49.426;11.182;2022-08-01T02:39:13;17.10;99.90
11538;DHT22;50159;49.426;11.182;2022-08-01T02:41:47;17.10;99.90
11538;DHT22;50159;49.426;11.182;2022-08-01T02:44:24;17.10;99.90
11538;DHT22;50159;49.426;11.182;2022-08-01T02:46:58;17.10;99.90
11538;DHT22;50159;49.426;11.182;2022-08-01T02:49:41;17.10;99.90
11538;DHT22;50159;49.426;11.182;2022-08-01T02:52:13;17.10;99.90
11538;DHT22;50159;49.426;11.182;2022-08-01T02:54:44;17.00;99.90
11538;DHT22;50159;49.426;11.182;2022-08-01T02:57:14;17.00;99.90
11538;DHT22;50159;49.426;11.182;2022-08-01T02:59:45;17.00;99.90
11538;DHT22;50159;49.426;11.182;2022-08-01T03:02:15;16.90;99.90
11538;DHT22;50159;49.426;11.182;2022-08-01T03:04:44;16.90;99.90
11538;DHT22;50159;49.426;11.182;2022-08-01T03:07:13;16.80;99.90
11538;DHT22;50159;49.426;11.182;2022-08-01T03:09:44;16.80;99.90
11538;DHT22;50159;49.426;11.182;2022-08-01T03:12:18;16.70;99.90
11538;DHT22;50159;49.426;11.182;2022-08-01T03:14:51;16.70;99.90
11538;DHT22;50159;49.426;11.182;2022-08-01T03:17:24;16.60;99.90
11538;DHT22;50159;49.426;11.182;2022-08-01T03:19:55;16.50;99.90
11538;DHT22;50159;49.426;11.182;2022-08-01T03:22:25;16.50;99.90
11538;DHT22;50159;49.426;11.182;2022-08-01T03:24:56;16.50;99.90
11538;DHT22;50159;49.426;11.182;2022-08-01T03:27:25;16.40;99.90
11538;DHT22;50159;49.426;11.182;2022-08-01T03:29:55;16.40;99.90
11538;DHT22;50159;49.426;11.182;2022-08-01T03:32:24;16.40;99.90
11538;DHT22;50159;49.426;11.182;2022-08-01T03:34:53;16.30;99.90
11538;DHT22;50159;49.426;11.182;2022-08-01T03:37:35;16.30;99.90
11538;DHT22;50159;49.426;11.182;2022-08-01T03:40:38;16.30;99.90
11538;DHT22;50159;49.426;11.182;2022-08-01T03:43:11;16.20;99.90
11538;DHT22;50159;49.426;11.182;2022-08-01T03:45:48;16.10;99.90
11538;DHT22;50159;49.426;11.182;2022-08-01T03:48:19;16.10;99.90
11538;DHT22;50159;49.426;11.182;2022-08-01T03:50:51;16.10;99.90
11538;DHT22;50159;49.426;11.182;2022-08-01T03:53:22;16.00;99.90
11538;DHT22;50159;49.426;11.182;2022-08-01T03:55:53;16.00;99.90
11538;DHT22;50159;49.426;11.182;2022-08-01T03:58:22;16.00;99.90
11538;DHT22;50159;49.426;11.182;2022-08-01T04:00:50;15.90;99.90
11538;DHT22;50159;49.426;11.182;2022-08-01T04:03:17;15.90;99.90
11538;DHT22;50159;49.426;11.182;2022-08-01T04:05:46;15.90;99.90
11538;DHT22;50159;49.426;11.182;2022-08-01T04:08:13;15.90;99.90
11538;DHT22;50159;49.426;11.182;2022-08-01T04:10:40;15.90;99.90
11538;DHT22;50159;49.426;11.182;2022-08-01T04:13:07;15.90;99.90
11538;DHT22;50159;49.426;11.182;2022-08-01T04:15:33;15.90;99.90
11538;DHT22;50159;49.426;11.182;2022-08-01T04:18:00;16.00;99.90
11538;DHT22;50159;49.426;11.182;2022-08-01T04:20:27;16.00;99.90
11538;DHT22;50159;49.426;11.182;2022-08-01T04:22:54;16.00;99.90
11538;DHT22;50159;49.426;11.182;2022-08-01T04:25:34;16.00;99.90
11538;DHT22;50159;49.426;11.182;2022-08-01T04:28:04;16.10;99.90
11538;DHT22;50159;49.426;11.182;2022-08-01T04:30:35;16.20;99.90
11538;DHT22;50159;49.426;11.182;2022-08-01T04:33:06;16.20;99.90
11538;DHT22;50159;49.426;11.182;2022-08-01T04:35:37;16.30;99.90
11538;DHT22;50159;49.426;11.182;2022-08-01T04:38:27;16.40;99.90
11538;DHT22;50159;49.426;11.182;2022-08-01T04:40:56;16.50;99.90
11538;DHT22;50159;49.426;11.182;2022-08-01T04:43:24;16.50;99.90
11538;DHT22;50159;49.426;11.182;2022-08-01T04:45:51;16.60;99.90
11538;DHT22;50159;49.426;11.182;2022-08-01T04:48:18;16.70;99.90
11538;DHT22;50159;49.426;11.182;2022-08-01T04:50:48;16.80;99.90
11538;DHT22;50159;49.426;11.182;2022-08-01T04:53:20;16.80;99.90
11538;DHT22;50159;49.426;11.182;2022-08-01T04:55:49;16.80;99.90
11538;DHT22;50159;49.426;11.182;2022-08-01T04:58:16;16.90;99.90
11538;DHT22;50159;49.426;11.182;2022-08-01T05:00:45;17.00;99.90
11538;DHT22;50159;49.426;11.182;2022-08-01T05:03:13;17.00;99.90
11538;DHT22;50159;49.426;11.182;2022-08-01T05:05:40;17.00;99.90
11538;DHT22;50159;49.426;11.182;2022-08-01T05:08:07;17.10;99.90
11538;DHT22;50159;49.426;11.182;2022-08-01T05:10:34;17.10;99.90
11538;DHT22;50159;49.426;11.182;2022-08-01T05:13:02;17.20;99.90
11538;DHT22;50159;49.426;11.182;2022-08-01T05:15:28;17.40;99.90
11538;DHT22;50159;49.426;11.182;2022-08-01T05:17:55;17.40;99.90
11538;DHT22;50159;49.426;11.182;2022-08-01T05:20:23;17.50;99.90
11538;DHT22;50159;49.426;11.182;2022-08-01T05:22:49;17.60;99.90
11538;DHT22;50159;49.426;11.182;2022-08-01T05:25:16;17.70;99.90
11538;DHT22;50159;49.426;11.182;2022-08-01T05:28:04;17.80;99.90
11538;DHT22;50159;49.426;11.182;2022-08-01T05:30:31;17.90;99.90
11538;DHT22;50159;49.426;11.182;2022-08-01T05:32:58;18.00;99.90
11538;DHT22;50159;49.426;11.182;2022-08-01T05:35:25;18.10;99.90
11538;DHT22;50159;49.426;11.182;2022-08-01T05:38:12;18.20;99.90
11538;DHT22;50159;49.426;11.182;2022-08-01T05:40:40;18.30;99.90
11538;DHT22;50159;49.426;11.182;2022-08-01T05:43:07;18.40;99.90
11538;DHT22;50159;49.426;11.182;2022-08-01T05:45:34;18.50;99.90
11538;DHT22;50159;49.426;11.182;2022-08-01T05:48:01;18.70;99.90
11538;DHT22;50159;49.426;11.182;2022-08-01T05:50:28;18.80;99.90
11538;DHT22;50159;49.426;11.182;2022-08-01T05:52:54;18.90;99.90
11538;DHT22;50159;49.426;11.182;2022-08-01T05:55:21;19.10;99.90
11538;DHT22;50159;49.426;11.182;2022-08-01T05:57:48;19.20;99.90
11538;DHT22;50159;49.426;11.182;2022-08-01T06:00:15;19.30;99.90
11538;DHT22;50159;49.426;11.182;2022-08-01T06:02:42;19.40;99.90
11538;DHT22;50159;49.426;11.182;2022-08-01T06:05:10;19.50;99.90
11538;DHT22;50159;49.426;11.182;2022-08-01T06:07:39;19.60;99.90
11538;DHT22;50159;49.426;11.182;2022-08-01T06:10:07;19.70;99.90
11538;DHT22;50159;49.426;11.182;2022-08-01T06:12:35;19.80;99.90
11538;DHT22;50159;49.426;11.182;2022-08-01T06:15:04;20.00;99.90
11538;DHT22;50159;49.426;11.182;2022-08-01T06:17:32;20.10;99.90
11538;DHT22;50159;49.426;11.182;2022-08-01T06:19:59;20.30;99.90
11538;DHT22;50159;49.426;11.182;2022-08-01T06:22:26;20.40;99.90
11538;DHT22;50159;49.426;11.182;2022-08-01T06:24:53;20.60;99.90
11538;DHT22;50159;49.426;11.182;2022-08-01T06:27:20;20.70;99.90
11538;DHT22;50159;49.426;11.182;2022-08-01T06:29:48;20.80;99.90
11538;DHT22;50159;49.426;11.182;2022-08-01T06:32:23;20.90;99.90
11538;DHT22;50159;49.426;11.182;2022-08-01T06:34:54;21.00;99.90
11538;DHT22;50159;49.426;11.182;2022-08-01T06:37:22;21.20;99.90
11538;DHT22;50159;49.426;11.182;2022-08-01T06:39:49;21.40;99.40
11538;DHT22;50159;49.426;11.182;2022-08-01T06:42:17;21.50;98.80
11538;DHT22;50159;49.426;11.182;2022-08-01T06:44:44;21.70;98.20
11538;DHT22;50159;49.426;11.182;2022-08-01T06:47:12;21.80;97.80
11538;DHT22;50159;49.426;11.182;2022-08-01T06:49:39;21.90;97.40
11538;DHT22;50159;49.426;11.182;2022-08-01T06:52:06;21.90;96.60
11538;DHT22;50159;49.426;11.182;2022-08-01T06:54:33;22.00;96.70
11538;DHT22;50159;49.426;11.182;2022-08-01T06:57:00;22.00;96.40
11538;DHT22;50159;49.426;11.182;2022-08-01T06:59:27;22.10;96.40
11538;DHT22;50159;49.426;11.182;2022-08-01T07:01:54;22.10;96.20
11538;DHT22;50159;49.426;11.182;2022-08-01T07:04:20;22.20;96.10
11538;DHT22;50159;49.426;11.182;2022-08-01T07:06:47;22.20;96.00
11538;DHT22;50159;49.426;11.182;2022-08-01T07:09:14;22.20;96.10
11538;DHT22;50159;49.426;11.182;2022-08-01T07:11:41;22.20;96.10
11538;DHT22;50159;49.426;11.182;2022-08-01T07:14:08;22.30;96.10
11538;DHT22;50159;49.426;11.182;2022-08-01T07:16:35;22.30;95.80
11538;DHT22;50159;49.426;11.182;2022-08-01T07:19:02;22.30;95.60
11538;DHT22;50159;49.426;11.182;2022-08-01T07:21:29;22.30;95.40
11538;DHT22;50159;49.426;11.182;2022-08-01T07:24:08;22.40;95.50
11538;DHT22;50159;49.426;11.182;2022-08-01T07:26:46;22.50;95.30
11538;DHT22;50159;49.426;11.182;2022-08-01T07:29:29;22.50;95.00
11538;DHT22;50159;49.426;11.182;2022-08-01T07:31:57;22.60;94.90
11538;DHT22;50159;49.426;11.182;2022-08-01T07:34:25;22.60;94.10
11538;DHT22;50159;49.426;11.182;2022-08-01T07:36:52;22.70;94.10
11538;DHT22;50159;49.426;11.182;2022-08-01T07:39:19;22.80;94.20
11538;DHT22;50159;49.426;11.182;2022-08-01T07:41:46;22.80;93.40
11538;DHT22;50159;49.426;11.182;2022-08-01T07:44:34;22.90;92.90
11538;DHT22;50159;49.426;11.182;2022-08-01T07:47:01;23.00;93.00
11538;DHT22;50159;49.426;11.182;2022-08-01T07:49:28;23.10;92.20
11538;DHT22;50159;49.426;11.182;2022-08-01T07:51:55;23.20;91.50
11538;DHT22;50159;49.426;11.182;2022-08-01T07:54:31;23.30;90.30
11538;DHT22;50159;49.426;11.182;2022-08-01T07:57:01;23.40;90.50
11538;DHT22;50159;49.426;11.182;2022-08-01T07:59:29;23.60;89.00
11538;DHT22;50159;49.426;11.182;2022-08-01T08:01:56;23.70;88.00
11538;DHT22;50159;49.426;11.182;2022-08-01T08:04:23;23.90;86.90
11538;DHT22;50159;49.426;11.182;2022-08-01T08:06:50;24.00;86.50
11538;DHT22;50159;49.426;11.182;2022-08-01T08:09:17;24.10;85.40
11538;DHT22;50159;49.426;11.182;2022-08-01T08:11:44;24.30;85.00
11538;DHT22;50159;49.426;11.182;2022-08-01T08:14:14;24.30;83.60
11538;DHT22;50159;49.426;11.182;2022-08-01T08:16:45;24.30;83.00
11538;DHT22;50159;49.426;11.182;2022-08-01T08:19:12;24.30;82.90
11538;DHT22;50159;49.426;11.182;2022-08-01T08:21:39;24.40;83.50
11538;DHT22;50159;49.426;11.182;2022-08-01T08:24:07;24.40;82.70
11538;DHT22;50159;49.426;11.182;2022-08-01T08:26:58;24.30;82.50
11538;DHT22;50159;49.426;11.182;2022-08-01T08:29:26;24.20;82.90
11538;DHT22;50159;49.426;11.182;2022-08-01T08:31:56;24.10;83.10
11538;DHT22;50159;49.426;11.182;2022-08-01T08:34:25;24.00;83.90
11538;DHT22;50159;49.426;11.182;2022-08-01T08:36:54;24.00;83.70
11538;DHT22;50159;49.426;11.182;2022-08-01T08:39:22;23.90;83.70
11538;DHT22;50159;49.426;11.182;2022-08-01T08:41:52;24.00;84.00
11538;DHT22;50159;49.426;11.182;2022-08-01T08:44:19;23.90;83.50
11538;DHT22;50159;49.426;11.182;2022-08-01T08:46:50;23.80;83.20
11538;DHT22;50159;49.426;11.182;2022-08-01T08:49:25;23.80;83.10
11538;DHT22;50159;49.426;11.182;2022-08-01T08:52:03;24.00;82.90
11538;DHT22;50159;49.426;11.182;2022-08-01T08:54:35;24.20;82.70
11538;DHT22;50159;49.426;11.182;2022-08-01T08:57:06;24.30;81.30
11538;DHT22;50159;49.426;11.182;2022-08-01T08:59:34;24.40;79.90
11538;DHT22;50159;49.426;11.182;2022-08-01T09:02:01;24.60;79.00
11538;DHT22;50159;49.426;11.182;2022-08-01T09:04:28;24.70;76.50
11538;DHT22;50159;49.426;11.182;2022-08-01T09:06:55;24.70;75.90
11538;DHT22;50159;49.426;11.182;2022-08-01T09:09:22;24.70;75.30
11538;DHT22;50159;49.426;11.182;2022-08-01T09:11:49;24.70;74.60
11538;DHT22;50159;49.426;11.182;2022-08-01T09:14:25;24.60;74.70
11538;DHT22;50159;49.426;11.182;2022-08-01T09:19:35;24.40;75.80
11538;DHT22;50159;49.426;11.182;2022-08-01T09:22:24;24.40;76.20
11538;DHT22;50159;49.426;11.182;2022-08-01T09:27:36;25.10;72.90
11538;DHT22;50159;49.426;11.182;2022-08-01T09:30:16;25.30;70.10
11538;DHT22;50159;49.426;11.182;2022-08-01T09:32:53;25.30;69.80
11538;DHT22;50159;49.426;11.182;2022-08-01T09:35:35;25.40;69.80
11538;DHT22;50159;49.426;11.182;2022-08-01T09:38:24;25.50;69.40
11538;DHT22;50159;49.426;11.182;2022-08-01T09:41:00;25.50;69.20
11538;DHT22;50159;49.426;11.182;2022-08-01T09:43:29;25.40;68.10
11538;DHT22;50159;49.426;11.182;2022-08-01T09:45:59;25.30;69.00
11538;DHT22;50159;49.426;11.182;2022-08-01T09:48:31;25.30;69.30
11538;DHT22;50159;49.426;11.182;2022-08-01T09:50:59;25.40;69.20
11538;DHT22;50159;49.426;11.182;2022-08-01T09:53:47;25.70;69.20
11538;DHT22;50159;49.426;11.182;2022-08-01T09:56:19;26.40;68.30
11538;DHT22;50159;49.426;11.182;2022-08-01T09:58:58;26.80;65.50
11538;DHT22;50159;49.426;11.182;2022-08-01T10:01:48;26.80;63.00
11538;DHT22;50159;49.426;11.182;2022-08-01T10:04:17;26.50;61.80
11538;DHT22;50159;49.426;11.182;2022-08-01T10:06:48;26.30;62.20
11538;DHT22;50159;49.426;11.182;2022-08-01T10:09:29;26.20;63.50
11538;DHT22;50159;49.426;11.182;2022-08-01T10:12:07;26.10;63.90
11538;DHT22;50159;49.426;11.182;2022-08-01T10:14:47;26.00;64.50
11538;DHT22;50159;49.426;11.182;2022-08-01T10:17:19;25.90;64.10
11538;DHT22;50159;49.426;11.182;2022-08-01T10:19:48;26.10;64.40
11538;DHT22;50159;49.426;11.182;2022-08-01T10:22:18;26.40;62.20
11538;DHT22;50159;49.426;11.182;2022-08-01T10:24:51;26.60;62.10
11538;DHT22;50159;49.426;11.182;2022-08-01T10:27:22;26.80;61.50
11538;DHT22;50159;49.426;11.182;2022-08-01T10:30:04;26.90;59.00
11538;DHT22;50159;49.426;11.182;2022-08-01T10:32:47;26.90;59.00
11538;DHT22;50159;49.426;11.182;2022-08-01T10:35:17;26.90;58.70
11538;DHT22;50159;49.426;11.182;2022-08-01T10:38:05;27.00;59.60
11538;DHT22;50159;49.426;11.182;2022-08-01T10:40:37;27.40;57.90
11538;DHT22;50159;49.426;11.182;2022-08-01T10:43:06;27.90;57.50
11538;DHT22;50159;49.426;11.182;2022-08-01T10:45:35;28.20;55.90
11538;DHT22;50159;49.426;11.182;2022-08-01T10:48:04;28.20;55.20
11538;DHT22;50159;49.426;11.182;2022-08-01T10:50:35;28.20;54.50
11538;DHT22;50159;49.426;11.182;2022-08-01T10:53:13;27.90;54.20
11538;DHT22;50159;49.426;11.182;2022-08-01T10:58:29;27.20;55.20
11538;DHT22;50159;49.426;11.182;2022-08-01T11:01:25;27.10;56.00
11538;DHT22;50159;49.426;11.182;2022-08-01T11:07:02;27.90;55.40
11538;DHT22;50159;49.426;11.182;2022-08-01T11:09:43;28.20;53.30
11538;DHT22;50159;49.426;11.182;2022-08-01T11:12:18;28.30;52.90
11538;DHT22;50159;49.426;11.182;2022-08-01T11:20:15;28.70;50.30
11538;DHT22;50159;49.426;11.182;2022-08-01T11:28:32;28.50;51.60
11538;DHT22;50159;49.426;11.182;2022-08-01T11:41:17;28.20;50.70
11538;DHT22;50159;49.426;11.182;2022-08-01T11:44:20;28.40;50.90
11538;DHT22;50159;49.426;11.182;2022-08-01T11:47:00;28.90;50.50
11538;DHT22;50159;49.426;11.182;2022-08-01T11:52:30;28.90;49.40
11538;DHT22;50159;49.426;11.182;2022-08-01T11:55:06;29.20;49.20
11538;DHT22;50159;49.426;11.182;2022-08-01T11:57:36;29.60;48.60
11538;DHT22;50159;49.426;11.182;2022-08-01T12:00:15;29.80;46.70
11538;DHT22;50159;49.426;11.182;2022-08-01T12:02:48;29.90;46.80
11538;DHT22;50159;49.426;11.182;2022-08-01T12:05:35;30.10;46.20
11538;DHT22;50159;49.426;11.182;2022-08-01T12:08:09;30.20;46.80
11538;DHT22;50159;49.426;11.182;2022-08-01T12:10:36;30.20;44.70
11538;DHT22;50159;49.426;11.182;2022-08-01T12:13:15;29.90;45.70
11538;DHT22;50159;49.426;11.182;2022-08-01T12:15:44;29.50;46.20
11538;DHT22;50159;49.426;11.182;2022-08-01T12:18:12;29.00;48.10
11538;DHT22;50159;49.426;11.182;2022-08-01T12:20:41;28.80;48.90
11538;DHT22;50159;49.426;11.182;2022-08-01T12:23:22;28.70;48.90
11538;DHT22;50159;49.426;11.182;2022-08-01T12:25:53;28.80;48.50
11538;DHT22;50159;49.426;11.182;2022-08-01T12:28:20;28.90;48.50
11538;DHT22;50159;49.426;11.182;2022-08-01T12:30:48;28.80;48.60
11538;DHT22;50159;49.426;11.182;2022-08-01T12:33:20;28.80;48.70
11538;DHT22;50159;49.426;11.182;2022-08-01T12:35:47;28.70;48.80
11538;DHT22;50159;49.426;11.182;2022-08-01T12:38:17;28.60;49.80
11538;DHT22;50159;49.426;11.182;2022-08-01T12:40:47;28.40;49.30
11538;DHT22;50159;49.426;11.182;2022-08-01T12:43:20;28.30;49.40
11538;DHT22;50159;49.426;11.182;2022-08-01T12:45:56;28.10;50.30
11538;DHT22;50159;49.426;11.182;2022-08-01T12:48:25;27.90;51.00
11538;DHT22;50159;49.426;11.182;2022-08-01T12:50:55;27.80;51.30
11538;DHT22;50159;49.426;11.182;2022-08-01T12:53:25;27.70;52.20
11538;DHT22;50159;49.426;11.182;2022-08-01T12:56:07;27.50;52.50
11538;DHT22;50159;49.426;11.182;2022-08-01T12:58:36;27.50;53.00
11538;DHT22;50159;49.426;11.182;2022-08-01T13:01:09;27.80;53.30
11538;DHT22;50159;49.426;11.182;2022-08-01T13:03:38;28.40;52.20
11538;DHT22;50159;49.426;11.182;2022-08-01T13:06:15;28.90;50.00
11538;DHT22;50159;49.426;11.182;2022-08-01T13:08:44;29.10;49.60
11538;DHT22;50159;49.426;11.182;2022-08-01T13:11:13;29.20;49.30
11538;DHT22;50159;49.426;11.182;2022-08-01T13:13:48;29.40;48.90
11538;DHT22;50159;49.426;11.182;2022-08-01T13:16:21;29.50;48.70
11538;DHT22;50159;49.426;11.182;2022-08-01T13:19:00;29.70;48.40
11538;DHT22;50159;49.426;11.182;2022-08-01T13:21:30;30.00;48.00
11538;DHT22;50159;49.426;11.182;2022-08-01T13:24:26;30.30;47.00
11538;DHT22;50159;49.426;11.182;2022-08-01T13:26:59;30.50;46.40
11538;DHT22;50159;49.426;11.182;2022-08-01T13:29:39;30.50;45.90
11538;DHT22;50159;49.426;11.182;2022-08-01T13:32:17;30.50;45.00
11538;DHT22;50159;49.426;11.182;2022-08-01T13:35:09;30.60;44.80
11538;DHT22;50159;49.426;11.182;2022-08-01T13:37:42;30.50;44.20
11538;DHT22;50159;49.426;11.182;2022-08-01T13:40:10;30.40;44.50
11538;DHT22;50159;49.426;11.182;2022-08-01T13:42:38;30.10;44.50
11538;DHT22;50159;49.426;11.182;2022-08-01T13:45:06;29.90;45.20
11538;DHT22;50159;49.426;11.182;2022-08-01T13:47:41;29.90;45.20
11538;DHT22;50159;49.426;11.182;2022-08-01T13:50:28;29.80;45.50
11538;DHT22;50159;49.426;11.182;2022-08-01T13:52:56;29.60;45.90
11538;DHT22;50159;49.426;11.182;2022-08-01T13:55:23;29.30;46.70
11538;DHT22;50159;49.426;11.182;2022-08-01T13:57:50;29.10;47.40
11538;DHT22;50159;49.426;11.182;2022-08-01T14:00:17;28.90;48.10
11538;DHT22;50159;49.426;11.182;2022-08-01T14:02:43;28.80;47.60
11538;DHT22;50159;49.426;11.182;2022-08-01T14:05:10;28.80;47.50
11538;DHT22;50159;49.426;11.182;2022-08-01T14:07:37;28.80;47.80
11538;DHT22;50159;49.426;11.182;2022-08-01T14:10:07;28.80;48.10
11538;DHT22;50159;49.426;11.182;2022-08-01T14:12:47;28.80;47.90
11538;DHT22;50159;49.426;11.182;2022-08-01T14:15:15;28.90;48.20
11538;DHT22;50159;49.426;11.182;2022-08-01T14:18:02;29.00;48.40
11538;DHT22;50159;49.426;11.182;2022-08-01T14:20:31;29.10;48.50
11538;DHT22;50159;49.426;11.182;2022-08-01T14:22:59;29.20;48.50
11538;DHT22;50159;49.426;11.182;2022-08-01T14:25:26;29.40;48.10
11538;DHT22;50159;49.426;11.182;2022-08-01T14:28:12;29.90;46.70
11538;DHT22;50159;49.426;11.182;2022-08-01T14:30:39;30.20;46.30
11538;DHT22;50159;49.426;11.182;2022-08-01T14:33:09;30.30;46.10
11538;DHT22;50159;49.426;11.182;2022-08-01T14:35:37;30.50;45.70
11538;DHT22;50159;49.426;11.182;2022-08-01T14:38:25;30.60;45.20
11538;DHT22;50159;49.426;11.182;2022-08-01T14:40:58;30.60;45.10
11538;DHT22;50159;49.426;11.182;2022-08-01T14:43:25;30.50;45.10
11538;DHT22;50159;49.426;11.182;2022-08-01T14:45:59;30.40;45.50
11538;DHT22;50159;49.426;11.182;2022-08-01T14:48:30;30.10;45.60
11538;DHT22;50159;49.426;11.182;2022-08-01T14:50:58;30.20;45.70
11538;DHT22;50159;49.426;11.182;2022-08-01T14:53:29;30.40;44.70
11538;DHT22;50159;49.426;11.182;2022-08-01T14:55:56;30.50;45.30
11538;DHT22;50159;49.426;11.182;2022-08-01T14:58:23;30.50;44.40
11538;DHT22;50159;49.426;11.182;2022-08-01T15:00:50;30.60;43.20
11538;DHT22;50159;49.426;11.182;2022-08-01T15:03:24;30.80;42.90
11538;DHT22;50159;49.426;11.182;2022-08-01T15:05:51;30.80;42.60
11538;DHT22;50159;49.426;11.182;2022-08-01T15:08:18;30.70;43.00
11538;DHT22;50159;49.426;11.182;2022-08-01T15:10:45;30.80;42.20
11538;DHT22;50159;49.426;11.182;2022-08-01T15:13:12;30.80;41.60
11538;DHT22;50159;49.426;11.182;2022-08-01T15:15:39;30.90;42.20
11538;DHT22;50159;49.426;11.182;2022-08-01T15:18:06;31.50;41.60
11538;DHT22;50159;49.426;11.182;2022-08-01T15:20:32;31.90;40.70
11538;DHT22;50159;49.426;11.182;2022-08-01T15:22:59;31.80;39.70
11538;DHT22;50159;49.426;11.182;2022-08-01T15:25:26;31.70;39.90
11538;DHT22;50159;49.426;11.182;2022-08-01T15:28:08;31.50;40.70
11538;DHT22;50159;49.426;11.182;2022-08-01T15:30:36;31.60;40.80
11538;DHT22;50159;49.426;11.182;2022-08-01T15:33:03;31.70;40.90
11538;DHT22;50159;49.426;11.182;2022-08-01T15:35:30;31.60;40.70
11538;DHT22;50159;49.426;11.182;2022-08-01T15:37:57;31.70;41.00
11538;DHT22;50159;49.426;11.182;2022-08-01T15:40:24;31.70;40.50
11538;DHT22;50159;49.426;11.182;2022-08-01T15:42:50;31.60;41.00
11538;DHT22;50159;49.426;11.182;2022-08-01T15:45:18;31.60;40.80
11538;DHT22;50159;49.426;11.182;2022-08-01T15:48:07;31.50;40.90
11538;DHT22;50159;49.426;11.182;2022-08-01T15:50:34;31.20;40.60
11538;DHT22;50159;49.426;11.182;2022-08-01T15:53:00;30.80;41.00
11538;DHT22;50159;49.426;11.182;2022-08-01T15:55:29;30.50;41.50
11538;DHT22;50159;49.426;11.182;2022-08-01T15:57:56;30.20;42.20
11538;DHT22;50159;49.426;11.182;2022-08-01T16:00:23;29.90;42.40
11538;DHT22;50159;49.426;11.182;2022-08-01T16:02:58;29.80;42.40
11538;DHT22;50159;49.426;11.182;2022-08-01T16:05:25;29.80;42.10
11538;DHT22;50159;49.426;11.182;2022-08-01T16:07:52;29.70;42.30
11538;DHT22;50159;49.426;11.182;2022-08-01T16:10:28;29.70;42.40
11538;DHT22;50159;49.426;11.182;2022-08-01T16:12:56;29.50;42.60
11538;DHT22;50159;49.426;11.182;2022-08-01T16:15:22;29.30;43.20
11538;DHT22;50159;49.426;11.182;2022-08-01T16:18:03;29.30;44.00
11538;DHT22;50159;49.426;11.182;2022-08-01T16:20:31;29.40;44.50
11538;DHT22;50159;49.426;11.182;2022-08-01T16:22:58;29.50;45.00
11538;DHT22;50159;49.426;11.182;2022-08-01T16:25:25;29.60;45.30
11538;DHT22;50159;49.426;11.182;2022-08-01T16:27:52;29.40;45.00
11538;DHT22;50159;49.426;11.182;2022-08-01T16:30:19;29.10;45.40
11538;DHT22;50159;49.426;11.182;2022-08-01T16:32:45;28.90;46.20